• Join FlightAware (Why Join?)
  • Login
  • US Flag 
11:14AM EDT


 

Airport Tracker/Info


-or-


 

Live Flight TrackerFlight Track Log ✈ SWA2852 ✈ 16-Apr-2013 ✈ KPHX - KSNA

Flight Track Log - Related Links

Times and Time Zones

All times are in EDT time to prevent confusion due to time zone crossing. See the SWA2852 flight status page for this flight to view local times or setup timezone preferences in your user account.

Time Position Orientation Groundspeed Altitude Reporting Facility
EDT Latitude Longitude Course Direction KTS MPH feet Rate Location/Type
12:13AM 33.4333 -112.0167 253° West 147 169 2,000  Level Phoenix TRACON
12:14AM 33.4253 -112.0492 253° West 139 160 3,900 2,880 Climbing Albuquerque Center
12:15AM 33.4050 -112.1147 250° West 218 251 7,100 3,600 Climbing Albuquerque Center
12:16AM 33.3867 -112.1983 255° West 255 293 11,300 3,180 Climbing Albuquerque Center
12:17AM 33.3883 -112.3081 271° West 345 397 13,600 3,240 Climbing Albuquerque Center
12:18AM 33.4050 -112.4269 280° West 362 417 17,900 4,620 Climbing Albuquerque Center
12:19AM 33.4200 -112.5431 279° West 353 406 23,000 4,080 Climbing Albuquerque Center
12:20AM 33.4081 -112.6633 263° West 327 376 26,300 3,180 Climbing Albuquerque Center
12:21AM 33.3969 -112.7708 263° West 326 375 29,500 2,160 Climbing Albuquerque Center
12:22AM 33.4272 -112.8758 289° West 342 394 30,800 1,620 Climbing Albuquerque Center
12:23AM 33.4683 -112.9878 294° West 364 419 32,800 2,520 Climbing Albuquerque Center
12:24AM 33.5089 -113.0942 295° West 359 413 35,900 1,560 Climbing Albuquerque Center
12:25AM 33.5478 -113.1978 294° West 347 399 36,000  Climbing Albuquerque Center
12:26AM 33.5875 -113.3036 294° West 349 402 36,000  Level Albuquerque Center
12:27AM 33.6072 -113.4164 282° West 348 400 36,000  Level Albuquerque Center
12:28AM 33.6192 -113.5422 277° West 345 397 36,000  Level Albuquerque Center
12:29AM 33.6306 -113.6569 277° West 347 399 36,000  Level Albuquerque Center
12:30AM 33.6425 -113.7719 277° West 348 400 36,000  Level Albuquerque Center
12:31AM 33.6528 -113.8900 276° West 353 406 36,000  Level Albuquerque Center
12:32AM 33.6650 -114.0044 277° West 349 402 36,000  Level Albuquerque Center
12:33AM 33.6767 -114.1208 277° West 352 405 36,000  Level Albuquerque Center
12:34AM 33.6864 -114.2497 275° West 355 409 36,000  Level Albuquerque Center
12:35AM 33.6989 -114.3653 277° West 351 404 36,000  Level Albuquerque Center
12:36AM 33.7081 -114.4717 276° West 356 410 36,000  Level Los Angeles Center
12:37AM 33.7194 -114.5894 277° West 355 409 36,000  Level Los Angeles Center
12:38AM 33.7303 -114.7086 276° West 359 413 36,000  Level Los Angeles Center
12:39AM 33.7397 -114.8261 276° West 355 409 36,000  Level Los Angeles Center
12:40AM 33.7506 -114.9439 276° West 355 409 36,000  Level Los Angeles Center
12:41AM 33.7600 -115.0600 276° West 352 405 36,000  Level Los Angeles Center
12:42AM 33.7706 -115.1767 276° West 353 406 36,000  Level Los Angeles Center
12:43AM 33.7806 -115.2914 276° West 349 402 36,000  Level Los Angeles Center
12:44AM 33.7917 -115.4311 276° West 351 404 36,000  Level Los Angeles Center
12:45AM 33.8008 -115.5475 275° West 351 404 36,000 -420 Level Los Angeles Center
12:46AM 33.8111 -115.6636 276° West 351 404 35,200 -840 Descending Los Angeles Center
12:47AM 33.8194 -115.7786 275° West 349 402 34,300 -600 Descending Los Angeles Center
12:48AM 33.8286 -115.8981 275° West 358 412 34,000 -300 Descending Los Angeles Center
12:49AM 33.8383 -116.0175 276° West 361 415 33,700 -720 Descending Los Angeles Center
12:51AM 33.8481 -116.1353 276° West 358 412 32,600 -2,160 Descending Los Angeles Center
12:52AM 33.8567 -116.2508 275° West 349 402 29,300 -3,600 Descending Los Angeles Center
12:53AM 33.8667 -116.3889 275° West 347 399 25,400 -3,300 Descending Los Angeles Center
12:54AM 33.8739 -116.5031 274° West 345 397 22,600 -2,760 Descending Los Angeles Center
12:55AM 33.8783 -116.6125 273° West 334 384 19,900 -2,760 Descending Los Angeles Center
12:56AM 33.8844 -116.7192 274° West 324 373 17,100 -2,760 Descending Los Angeles Center
12:57AM 33.8886 -116.8281 273° West 326 375 14,300 -2,040 Descending Los Angeles Center
12:57AM 33.8833 -116.9000 265° West 335 386 14,000 -720 Descending Southern California TRACON
12:58AM 33.8667 -117.0000 259° West 339 390 13,300 -720 Descending Southern California TRACON
12:59AM 33.8617 -117.0486 263° West 338 389 12,900 -540 Descending Los Angeles Center
01:00AM 33.8436 -117.1600 259° West 342 394 12,500 -960 Descending Los Angeles Center
01:01AM 33.8261 -117.2739 260° West 346 398 11,000 -1,200 Descending Los Angeles Center
01:02AM 33.8103 -117.3819 260° West 336 387 9,900 -1,320 Descending Los Angeles Center
01:03AM 33.7919 -117.5094 260° West 284 327 8,100 -1,620 Descending Los Angeles Center
01:04AM 33.7794 -117.5981 260° West 275 316 6,600 -1,320 Descending Los Angeles Center
01:05AM 33.7833 -117.7000 273° West 241 277 5,200 -1,800 Descending Southern California TRACON
01:06AM 33.7833 -117.7667 270° West 218 251 2,700 -1,500 Descending Southern California TRACON
01:07AM 33.7500 -117.8167 231° Southwest 160 184 2,200 -900 Descending Southern California TRACON
01:08AM 33.7167 -117.8333 203° Southwest 135 155 1,000 -960 Descending Southern California TRACON
01:09AM 33.6833 -117.8667 220° Southwest 122 140 300 -720 Descending Southern California TRACON
01:12AM 33.6757 -117.8682 132° Southeast  Level Estimated
01:19AM 33.6757 -117.8682 132° Southeast  Level Estimated